sensor_id;sensor_type;location;lat;lon;timestamp;pressure;altitude;pressure_sealevel;temperature;humidity
18858;BME280;9558;50.178;8.370;2022-08-14T00:02:05;97952.97;;;22.35;59.96
18858;BME280;9558;50.178;8.370;2022-08-14T00:04:34;97948.19;;;22.32;60.14
18858;BME280;9558;50.178;8.370;2022-08-14T00:07:01;97956.06;;;22.26;60.36
18858;BME280;9558;50.178;8.370;2022-08-14T00:09:28;97945.78;;;22.25;61.08
18858;BME280;9558;50.178;8.370;2022-08-14T00:11:55;97945.25;;;22.23;61.16
18858;BME280;9558;50.178;8.370;2022-08-14T00:14:22;97933.91;;;22.22;61.00
18858;BME280;9558;50.178;8.370;2022-08-14T00:16:50;97934.44;;;22.19;61.57
18858;BME280;9558;50.178;8.370;2022-08-14T00:19:17;97927.56;;;22.18;61.35
18858;BME280;9558;50.178;8.370;2022-08-14T00:21:43;97931.50;;;22.16;61.72
18858;BME280;9558;50.178;8.370;2022-08-14T00:24:10;97926.47;;;22.14;61.46
18858;BME280;9558;50.178;8.370;2022-08-14T00:26:36;97926.72;;;22.07;61.72
18858;BME280;9558;50.178;8.370;2022-08-14T00:29:03;97917.25;;;22.12;61.57
18858;BME280;9558;50.178;8.370;2022-08-14T00:31:30;97916.47;;;22.11;61.35
18858;BME280;9558;50.178;8.370;2022-08-14T00:33:58;97913.53;;;22.07;62.40
18858;BME280;9558;50.178;8.370;2022-08-14T00:36:24;97904.88;;;22.12;61.49
18858;BME280;9558;50.178;8.370;2022-08-14T00:38:51;97900.66;;;22.11;61.71
18858;BME280;9558;50.178;8.370;2022-08-14T00:41:17;97899.56;;;22.07;62.04
18858;BME280;9558;50.178;8.370;2022-08-14T00:43:44;97896.69;;;22.08;61.68
18858;BME280;9558;50.178;8.370;2022-08-14T00:46:11;97901.94;;;22.08;61.38
18858;BME280;9558;50.178;8.370;2022-08-14T00:48:38;97892.72;;;22.06;61.49
18858;BME280;9558;50.178;8.370;2022-08-14T00:51:08;97897.72;;;22.07;61.66
18858;BME280;9558;50.178;8.370;2022-08-14T00:53:36;97897.97;;;22.06;61.79
18858;BME280;9558;50.178;8.370;2022-08-14T00:56:04;97894.00;;;22.03;61.79
18858;BME280;9558;50.178;8.370;2022-08-14T00:58:32;97890.31;;;21.99;61.83
18858;BME280;9558;50.178;8.370;2022-08-14T01:01:01;97878.19;;;21.98;62.11
18858;BME280;9558;50.178;8.370;2022-08-14T01:03:28;97888.72;;;21.98;61.92
18858;BME280;9558;50.178;8.370;2022-08-14T01:05:55;97878.97;;;21.94;63.21
18858;BME280;9558;50.178;8.370;2022-08-14T01:08:26;97881.81;;;21.87;62.55
18858;BME280;9558;50.178;8.370;2022-08-14T01:10:53;97874.69;;;21.82;63.66
18858;BME280;9558;50.178;8.370;2022-08-14T01:13:24;97875.72;;;21.81;63.13
18858;BME280;9558;50.178;8.370;2022-08-14T01:15:54;97874.13;;;21.80;62.92
18858;BME280;9558;50.178;8.370;2022-08-14T01:18:23;97870.97;;;21.78;63.01
18858;BME280;9558;50.178;8.370;2022-08-14T01:21:08;97874.13;;;21.75;63.65
18858;BME280;9558;50.178;8.370;2022-08-14T01:23:40;97863.34;;;21.77;63.58
18858;BME280;9558;50.178;8.370;2022-08-14T01:26:08;97857.78;;;21.73;64.22
18858;BME280;9558;50.178;8.370;2022-08-14T01:28:37;97856.19;;;21.72;64.13
18858;BME280;9558;50.178;8.370;2022-08-14T01:31:06;97859.88;;;21.71;64.42
18858;BME280;9558;50.178;8.370;2022-08-14T01:33:36;97863.81;;;21.68;63.95
18858;BME280;9558;50.178;8.370;2022-08-14T01:36:06;97863.50;;;21.60;64.31
18858;BME280;9558;50.178;8.370;2022-08-14T01:38:34;97857.94;;;21.56;63.94
18858;BME280;9558;50.178;8.370;2022-08-14T01:41:06;97854.19;;;21.47;64.08
18858;BME280;9558;50.178;8.370;2022-08-14T01:43:41;97853.88;;;21.43;64.58
18858;BME280;9558;50.178;8.370;2022-08-14T01:46:07;97859.38;;;21.36;64.97
18858;BME280;9558;50.178;8.370;2022-08-14T01:48:36;97856.41;;;21.28;65.33
18858;BME280;9558;50.178;8.370;2022-08-14T01:51:05;97855.81;;;21.20;66.45
18858;BME280;9558;50.178;8.370;2022-08-14T01:53:32;97840.53;;;21.17;66.37
18858;BME280;9558;50.178;8.370;2022-08-14T01:56:03;97837.38;;;21.15;66.30
18858;BME280;9558;50.178;8.370;2022-08-14T01:58:30;97834.69;;;21.10;67.64
18858;BME280;9558;50.178;8.370;2022-08-14T02:00:58;97831.53;;;21.08;67.31
18858;BME280;9558;50.178;8.370;2022-08-14T02:03:26;97830.97;;;21.06;67.16
18858;BME280;9558;50.178;8.370;2022-08-14T02:05:54;97826.47;;;21.01;66.60
18858;BME280;9558;50.178;8.370;2022-08-14T02:08:23;97811.19;;;20.98;67.63
18858;BME280;9558;50.178;8.370;2022-08-14T02:10:52;97809.03;;;20.90;67.50
18858;BME280;9558;50.178;8.370;2022-08-14T02:13:42;97807.16;;;20.85;68.26
18858;BME280;9558;50.178;8.370;2022-08-14T02:16:11;97800.88;;;20.86;68.54
18858;BME280;9558;50.178;8.370;2022-08-14T02:18:40;97790.28;;;20.81;68.10
18858;BME280;9558;50.178;8.370;2022-08-14T02:21:08;97788.41;;;20.77;68.29
18858;BME280;9558;50.178;8.370;2022-08-14T02:23:37;97767.59;;;20.70;70.73
18858;BME280;9558;50.178;8.370;2022-08-14T02:26:16;97773.81;;;20.64;69.86
18858;BME280;9558;50.178;8.370;2022-08-14T02:28:45;97766.91;;;20.58;69.53
18858;BME280;9558;50.178;8.370;2022-08-14T02:31:12;97755.59;;;20.52;70.31
18858;BME280;9558;50.178;8.370;2022-08-14T02:33:39;97754.19;;;20.44;70.67
18858;BME280;9558;50.178;8.370;2022-08-14T02:36:07;97752.06;;;20.41;70.97
18858;BME280;9558;50.178;8.370;2022-08-14T02:38:35;97754.09;;;20.34;71.66
18858;BME280;9558;50.178;8.370;2022-08-14T02:41:04;97748.78;;;20.29;71.63
18858;BME280;9558;50.178;8.370;2022-08-14T02:43:30;97743.00;;;20.27;71.90
18858;BME280;9558;50.178;8.370;2022-08-14T02:45:58;97748.19;;;20.22;72.18
18858;BME280;9558;50.178;8.370;2022-08-14T02:48:25;97748.94;;;20.17;73.65
18858;BME280;9558;50.178;8.370;2022-08-14T02:50:55;97748.16;;;20.16;72.76
18858;BME280;9558;50.178;8.370;2022-08-14T02:53:22;97763.94;;;20.16;72.82
18858;BME280;9558;50.178;8.370;2022-08-14T02:55:48;97756.06;;;20.22;73.02
18858;BME280;9558;50.178;8.370;2022-08-14T02:58:16;97767.19;;;20.29;73.38
18858;BME280;9558;50.178;8.370;2022-08-14T03:00:43;97759.34;;;20.34;73.44
18858;BME280;9558;50.178;8.370;2022-08-14T03:03:11;97756.53;;;20.41;73.13
18858;BME280;9558;50.178;8.370;2022-08-14T03:05:37;97759.19;;;20.46;72.88
18858;BME280;9558;50.178;8.370;2022-08-14T03:08:05;97757.91;;;20.48;72.77
18858;BME280;9558;50.178;8.370;2022-08-14T03:10:32;97763.75;;;20.55;72.16
18858;BME280;9558;50.178;8.370;2022-08-14T03:12:59;97767.41;;;20.54;73.08
18858;BME280;9558;50.178;8.370;2022-08-14T03:15:29;97763.50;;;20.57;71.76
18858;BME280;9558;50.178;8.370;2022-08-14T03:17:55;97763.50;;;20.57;71.52
18858;BME280;9558;50.178;8.370;2022-08-14T03:20:24;97756.91;;;20.54;71.83
18858;BME280;9558;50.178;8.370;2022-08-14T03:22:52;97760.84;;;20.52;71.40
18858;BME280;9558;50.178;8.370;2022-08-14T03:25:20;97763.16;;;20.48;71.66
18858;BME280;9558;50.178;8.370;2022-08-14T03:27:47;97763.09;;;20.43;71.63
18858;BME280;9558;50.178;8.370;2022-08-14T03:30:13;97764.66;;;20.39;71.56
18858;BME280;9558;50.178;8.370;2022-08-14T03:32:40;97768.03;;;20.34;71.80
18858;BME280;9558;50.178;8.370;2022-08-14T03:35:07;97765.63;;;20.28;72.23
18858;BME280;9558;50.178;8.370;2022-08-14T03:37:36;97768.69;;;20.19;72.24
18858;BME280;9558;50.178;8.370;2022-08-14T03:40:04;97767.78;;;20.09;72.66
18858;BME280;9558;50.178;8.370;2022-08-14T03:42:31;97764.78;;;20.00;72.85
18858;BME280;9558;50.178;8.370;2022-08-14T03:45:01;97758.66;;;19.89;73.26
18858;BME280;9558;50.178;8.370;2022-08-14T03:47:27;97769.81;;;19.79;73.42
18858;BME280;9558;50.178;8.370;2022-08-14T03:49:54;97765.94;;;19.65;73.67
18858;BME280;9558;50.178;8.370;2022-08-14T03:52:20;97763.41;;;19.53;73.99
18858;BME280;9558;50.178;8.370;2022-08-14T03:54:49;97759.31;;;19.40;74.11
18858;BME280;9558;50.178;8.370;2022-08-14T03:57:16;97758.94;;;19.31;74.73
18858;BME280;9558;50.178;8.370;2022-08-14T03:59:42;97753.56;;;19.21;74.84
18858;BME280;9558;50.178;8.370;2022-08-14T04:02:09;97754.78;;;19.13;75.70
18858;BME280;9558;50.178;8.370;2022-08-14T04:04:35;97756.19;;;19.04;76.02
18858;BME280;9558;50.178;8.370;2022-08-14T04:07:03;97752.94;;;18.97;76.29
18858;BME280;9558;50.178;8.370;2022-08-14T04:09:29;97743.91;;;18.88;76.07
18858;BME280;9558;50.178;8.370;2022-08-14T04:11:57;97743.25;;;18.80;76.66
18858;BME280;9558;50.178;8.370;2022-08-14T04:14:24;97744.75;;;18.76;77.36
18858;BME280;9558;50.178;8.370;2022-08-14T04:16:50;97748.56;;;18.69;77.30
18858;BME280;9558;50.178;8.370;2022-08-14T04:19:17;97739.28;;;18.61;77.78
18858;BME280;9558;50.178;8.370;2022-08-14T04:21:48;97746.56;;;18.59;78.77
18858;BME280;9558;50.178;8.370;2022-08-14T04:24:15;97741.00;;;18.55;79.20
18858;BME280;9558;50.178;8.370;2022-08-14T04:26:42;97751.16;;;18.52;79.17
18858;BME280;9558;50.178;8.370;2022-08-14T04:29:12;97751.63;;;18.48;79.41
18858;BME280;9558;50.178;8.370;2022-08-14T04:31:39;97744.00;;;18.47;79.27
18858;BME280;9558;50.178;8.370;2022-08-14T04:34:07;97743.47;;;18.45;79.66
18858;BME280;9558;50.178;8.370;2022-08-14T04:36:33;97739.00;;;18.45;79.91
18858;BME280;9558;50.178;8.370;2022-08-14T04:39:20;97743.38;;;18.40;79.84
18858;BME280;9558;50.178;8.370;2022-08-14T04:42:04;97752.50;;;18.37;80.15
18858;BME280;9558;50.178;8.370;2022-08-14T04:44:50;97753.75;;;18.35;79.99
18858;BME280;9558;50.178;8.370;2022-08-14T04:47:16;97748.19;;;18.31;80.13
18858;BME280;9558;50.178;8.370;2022-08-14T04:50:00;97745.00;;;18.29;80.51
18858;BME280;9558;50.178;8.370;2022-08-14T04:52:28;97740.00;;;18.27;80.75
18858;BME280;9558;50.178;8.370;2022-08-14T04:54:55;97743.69;;;18.26;80.36
18858;BME280;9558;50.178;8.370;2022-08-14T04:57:22;97735.81;;;18.26;81.07
18858;BME280;9558;50.178;8.370;2022-08-14T04:59:50;97739.69;;;18.24;80.46
18858;BME280;9558;50.178;8.370;2022-08-14T05:02:17;97739.22;;;18.27;80.86
18858;BME280;9558;50.178;8.370;2022-08-14T05:04:48;97742.38;;;18.29;80.91
18858;BME280;9558;50.178;8.370;2022-08-14T05:07:15;97745.25;;;18.27;81.19
18858;BME280;9558;50.178;8.370;2022-08-14T05:09:41;97744.47;;;18.27;81.55
18858;BME280;9558;50.178;8.370;2022-08-14T05:12:08;97743.91;;;18.25;81.62
18858;BME280;9558;50.178;8.370;2022-08-14T05:14:36;97742.84;;;18.26;82.10
18858;BME280;9558;50.178;8.370;2022-08-14T05:17:04;97746.97;;;18.22;81.62
18858;BME280;9558;50.178;8.370;2022-08-14T05:19:30;97748.81;;;18.21;81.95
18858;BME280;9558;50.178;8.370;2022-08-14T05:21:57;97746.97;;;18.22;82.53
18858;BME280;9558;50.178;8.370;2022-08-14T05:24:24;97748.56;;;18.23;82.12
18858;BME280;9558;50.178;8.370;2022-08-14T05:26:50;97743.34;;;18.23;82.17
18858;BME280;9558;50.178;8.370;2022-08-14T05:29:17;97740.72;;;18.23;82.62
18858;BME280;9558;50.178;8.370;2022-08-14T05:31:43;97748.34;;;18.24;82.95
18858;BME280;9558;50.178;8.370;2022-08-14T05:34:11;97739.69;;;18.24;82.94
18858;BME280;9558;50.178;8.370;2022-08-14T05:36:38;97732.84;;;18.23;82.74
18858;BME280;9558;50.178;8.370;2022-08-14T05:39:05;97737.63;;;18.26;83.09
18858;BME280;9558;50.178;8.370;2022-08-14T05:41:31;97729.75;;;18.26;83.11
18858;BME280;9558;50.178;8.370;2022-08-14T05:43:59;97740.34;;;18.31;83.35
18858;BME280;9558;50.178;8.370;2022-08-14T05:46:26;97731.00;;;18.35;83.49
18858;BME280;9558;50.178;8.370;2022-08-14T05:48:54;97732.59;;;18.36;83.51
18858;BME280;9558;50.178;8.370;2022-08-14T05:51:23;97728.91;;;18.37;83.85
18858;BME280;9558;50.178;8.370;2022-08-14T05:53:50;97736.06;;;18.42;84.00
18858;BME280;9558;50.178;8.370;2022-08-14T05:56:17;97730.13;;;18.46;84.28
18858;BME280;9558;50.178;8.370;2022-08-14T05:58:44;97724.31;;;18.44;83.84
18858;BME280;9558;50.178;8.370;2022-08-14T06:01:10;97722.28;;;18.46;84.04
18858;BME280;9558;50.178;8.370;2022-08-14T06:03:37;97721.78;;;18.50;84.92
18858;BME280;9558;50.178;8.370;2022-08-14T06:06:04;97726.66;;;18.58;84.96
18858;BME280;9558;50.178;8.370;2022-08-14T06:08:32;97725.59;;;18.59;84.53
18858;BME280;9558;50.178;8.370;2022-08-14T06:11:01;97715.44;;;18.62;84.67
18858;BME280;9558;50.178;8.370;2022-08-14T06:13:28;97718.94;;;18.68;84.42
18858;BME280;9558;50.178;8.370;2022-08-14T06:15:55;97717.97;;;18.74;84.43
18858;BME280;9558;50.178;8.370;2022-08-14T06:18:21;97720.69;;;18.79;84.45
18858;BME280;9558;50.178;8.370;2022-08-14T06:20:49;97722.94;;;18.88;84.64
18858;BME280;9558;50.178;8.370;2022-08-14T06:23:15;97719.66;;;18.97;84.23
18858;BME280;9558;50.178;8.370;2022-08-14T06:25:44;97713.84;;;19.12;84.23
18858;BME280;9558;50.178;8.370;2022-08-14T06:28:15;97711.97;;;19.30;84.37
18858;BME280;9558;50.178;8.370;2022-08-14T06:30:41;97717.53;;;19.56;83.69
18858;BME280;9558;50.178;8.370;2022-08-14T06:33:08;97726.03;;;19.85;83.34
18858;BME280;9558;50.178;8.370;2022-08-14T06:35:35;97713.84;;;20.28;82.29
18858;BME280;9558;50.178;8.370;2022-08-14T06:38:02;97717.16;;;20.78;81.63
18858;BME280;9558;50.178;8.370;2022-08-14T06:40:30;97720.41;;;21.38;79.34
18858;BME280;9558;50.178;8.370;2022-08-14T06:43:00;97723.53;;;22.04;77.94
18858;BME280;9558;50.178;8.370;2022-08-14T06:45:27;97718.59;;;22.80;75.32
18858;BME280;9558;50.178;8.370;2022-08-14T06:47:54;97711.31;;;23.52;70.48
18858;BME280;9558;50.178;8.370;2022-08-14T06:50:27;97711.41;;;24.26;64.87
18858;BME280;9558;50.178;8.370;2022-08-14T06:52:55;97701.75;;;25.05;64.47
18858;BME280;9558;50.178;8.370;2022-08-14T06:55:22;97697.78;;;25.75;62.41
18858;BME280;9558;50.178;8.370;2022-08-14T06:57:50;97704.66;;;26.33;58.16
18858;BME280;9558;50.178;8.370;2022-08-14T07:00:20;97695.88;;;26.98;55.40
18858;BME280;9558;50.178;8.370;2022-08-14T07:02:47;97686.59;;;27.65;54.81
18858;BME280;9558;50.178;8.370;2022-08-14T07:05:33;97690.50;;;28.18;51.85
18858;BME280;9558;50.178;8.370;2022-08-14T07:08:14;97682.03;;;28.70;49.95
18858;BME280;9558;50.178;8.370;2022-08-14T07:10:42;97682.84;;;29.20;49.00
18858;BME280;9558;50.178;8.370;2022-08-14T07:13:10;97676.53;;;29.73;47.99
18858;BME280;9558;50.178;8.370;2022-08-14T07:15:40;97679.03;;;30.31;47.17
18858;BME280;9558;50.178;8.370;2022-08-14T07:18:08;97674.16;;;30.89;45.59
18858;BME280;9558;50.178;8.370;2022-08-14T07:20:36;97674.69;;;31.42;44.28
18858;BME280;9558;50.178;8.370;2022-08-14T07:23:05;97667.00;;;32.04;43.30
18858;BME280;9558;50.178;8.370;2022-08-14T07:25:33;97666.94;;;32.59;40.72
18858;BME280;9558;50.178;8.370;2022-08-14T07:28:00;97666.63;;;33.10;40.20
18858;BME280;9558;50.178;8.370;2022-08-14T07:30:33;97659.28;;;33.59;38.86
18858;BME280;9558;50.178;8.370;2022-08-14T07:33:02;97662.50;;;34.06;37.73
18858;BME280;9558;50.178;8.370;2022-08-14T07:35:28;97666.31;;;34.49;36.77
18858;BME280;9558;50.178;8.370;2022-08-14T07:37:55;97666.44;;;34.85;35.92
18858;BME280;9558;50.178;8.370;2022-08-14T07:40:22;97671.13;;;35.23;35.50
18858;BME280;9558;50.178;8.370;2022-08-14T07:42:48;97665.03;;;35.62;34.36
18858;BME280;9558;50.178;8.370;2022-08-14T07:45:15;97667.25;;;35.76;33.38
18858;BME280;9558;50.178;8.370;2022-08-14T07:47:42;97665.28;;;35.92;33.60
18858;BME280;9558;50.178;8.370;2022-08-14T07:50:13;97669.56;;;36.16;32.88
18858;BME280;9558;50.178;8.370;2022-08-14T07:52:41;97676.56;;;36.21;32.70
18858;BME280;9558;50.178;8.370;2022-08-14T07:55:08;97674.59;;;36.18;32.42
18858;BME280;9558;50.178;8.370;2022-08-14T07:57:35;97678.72;;;36.31;32.39
18858;BME280;9558;50.178;8.370;2022-08-14T08:00:05;97677.81;;;36.70;32.13
18858;BME280;9558;50.178;8.370;2022-08-14T08:02:38;97676.34;;;36.99;31.52
18858;BME280;9558;50.178;8.370;2022-08-14T08:05:06;97678.03;;;37.34;31.00
18858;BME280;9558;50.178;8.370;2022-08-14T08:07:35;97685.66;;;37.59;30.61
18858;BME280;9558;50.178;8.370;2022-08-14T08:10:05;97690.59;;;37.84;30.19
18858;BME280;9558;50.178;8.370;2022-08-14T08:12:53;97687.81;;;38.11;30.54
18858;BME280;9558;50.178;8.370;2022-08-14T08:15:21;97689.59;;;38.33;29.76
18858;BME280;9558;50.178;8.370;2022-08-14T08:17:48;97689.84;;;38.59;29.26
18858;BME280;9558;50.178;8.370;2022-08-14T08:20:16;97689.66;;;38.82;28.91
18858;BME280;9558;50.178;8.370;2022-08-14T08:22:46;97685.06;;;38.89;28.34
18858;BME280;9558;50.178;8.370;2022-08-14T08:25:13;97687.88;;;39.08;28.11
18858;BME280;9558;50.178;8.370;2022-08-14T08:27:39;97682.13;;;39.13;28.37
18858;BME280;9558;50.178;8.370;2022-08-14T08:30:08;97686.53;;;39.43;27.77
18858;BME280;9558;50.178;8.370;2022-08-14T08:32:39;97682.03;;;39.68;27.78
18858;BME280;9558;50.178;8.370;2022-08-14T08:35:09;97685.22;;;39.92;27.37
18858;BME280;9558;50.178;8.370;2022-08-14T08:37:37;97679.06;;;40.02;26.98
18858;BME280;9558;50.178;8.370;2022-08-14T08:40:06;97674.44;;;40.06;26.52
18858;BME280;9558;50.178;8.370;2022-08-14T08:42:32;97679.03;;;39.95;26.61
18858;BME280;9558;50.178;8.370;2022-08-14T08:44:59;97669.00;;;40.06;26.63
18858;BME280;9558;50.178;8.370;2022-08-14T08:47:36;97667.09;;;40.25;26.37
18858;BME280;9558;50.178;8.370;2022-08-14T08:50:15;97667.88;;;40.15;26.18
18858;BME280;9558;50.178;8.370;2022-08-14T08:52:48;97655.47;;;40.10;25.79
18858;BME280;9558;50.178;8.370;2022-08-14T08:55:23;97655.78;;;39.94;25.65
18858;BME280;9558;50.178;8.370;2022-08-14T08:57:53;97660.03;;;39.81;26.07
18858;BME280;9558;50.178;8.370;2022-08-14T09:00:20;97669.72;;;39.92;26.42
18858;BME280;9558;50.178;8.370;2022-08-14T09:02:54;97668.13;;;39.77;26.02
18858;BME280;9558;50.178;8.370;2022-08-14T09:05:22;97664.66;;;39.77;26.16
18858;BME280;9558;50.178;8.370;2022-08-14T09:07:49;97666.56;;;39.72;26.07
18858;BME280;9558;50.178;8.370;2022-08-14T09:10:17;97647.09;;;39.45;26.49
18858;BME280;9558;50.178;8.370;2022-08-14T09:12:45;97653.16;;;39.13;27.18
18858;BME280;9558;50.178;8.370;2022-08-14T09:15:12;97648.63;;;38.72;26.70
18858;BME280;9558;50.178;8.370;2022-08-14T09:17:40;97650.19;;;38.32;27.81
18858;BME280;9558;50.178;8.370;2022-08-14T09:20:08;97649.72;;;37.85;28.50
18858;BME280;9558;50.178;8.370;2022-08-14T09:22:35;97632.53;;;37.33;28.48
18858;BME280;9558;50.178;8.370;2022-08-14T09:25:02;97642.53;;;36.79;28.92
18858;BME280;9558;50.178;8.370;2022-08-14T09:27:31;97634.38;;;36.29;29.66
18858;BME280;9558;50.178;8.370;2022-08-14T09:29:58;97635.94;;;35.68;30.41
18858;BME280;9558;50.178;8.370;2022-08-14T09:32:34;97629.22;;;35.03;31.11
18858;BME280;9558;50.178;8.370;2022-08-14T09:35:08;97629.66;;;34.41;31.76
18858;BME280;9558;50.178;8.370;2022-08-14T09:37:53;97619.78;;;34.01;32.42
18858;BME280;9558;50.178;8.370;2022-08-14T09:40:30;97622.97;;;33.62;32.78
18858;BME280;9558;50.178;8.370;2022-08-14T09:43:08;97619.38;;;33.17;33.55
18858;BME280;9558;50.178;8.370;2022-08-14T09:45:44;97623.44;;;32.74;34.06
18858;BME280;9558;50.178;8.370;2022-08-14T09:48:14;97628.03;;;32.28;34.58
18858;BME280;9558;50.178;8.370;2022-08-14T09:50:45;97612.06;;;31.85;35.76
18858;BME280;9558;50.178;8.370;2022-08-14T09:53:16;97607.97;;;31.46;36.86
18858;BME280;9558;50.178;8.370;2022-08-14T09:55:44;97615.59;;;31.14;36.19
18858;BME280;9558;50.178;8.370;2022-08-14T09:58:14;97608.34;;;30.84;37.41
18858;BME280;9558;50.178;8.370;2022-08-14T10:00:44;97605.34;;;30.47;38.56
18858;BME280;9558;50.178;8.370;2022-08-14T10:03:22;97598.78;;;30.36;38.19
18858;BME280;9558;50.178;8.370;2022-08-14T10:05:49;97606.03;;;30.27;39.08
18858;BME280;9558;50.178;8.370;2022-08-14T10:08:17;97600.22;;;30.25;38.63
18858;BME280;9558;50.178;8.370;2022-08-14T10:10:45;97601.19;;;30.11;39.11
18858;BME280;9558;50.178;8.370;2022-08-14T10:13:24;97591.31;;;30.03;39.82
18858;BME280;9558;50.178;8.370;2022-08-14T10:15:58;97589.13;;;30.05;39.91
18858;BME280;9558;50.178;8.370;2022-08-14T10:18:26;97577.97;;;30.12;39.73
18858;BME280;9558;50.178;8.370;2022-08-14T10:20:54;97584.88;;;30.13;39.75
18858;BME280;9558;50.178;8.370;2022-08-14T10:23:24;97590.22;;;30.13;39.64
18858;BME280;9558;50.178;8.370;2022-08-14T10:25:52;97582.22;;;30.04;39.20
18858;BME280;9558;50.178;8.370;2022-08-14T10:28:20;97576.09;;;30.04;38.89
18858;BME280;9558;50.178;8.370;2022-08-14T10:30:50;97570.78;;;29.95;39.26
18858;BME280;9558;50.178;8.370;2022-08-14T10:33:26;97588.97;;;30.02;39.57
18858;BME280;9558;50.178;8.370;2022-08-14T10:35:54;97583.97;;;30.00;39.42
18858;BME280;9558;50.178;8.370;2022-08-14T10:38:28;97579.72;;;29.99;40.01
18858;BME280;9558;50.178;8.370;2022-08-14T10:41:08;97566.84;;;30.01;39.29
18858;BME280;9558;50.178;8.370;2022-08-14T10:43:38;97566.06;;;30.01;39.50
18858;BME280;9558;50.178;8.370;2022-08-14T10:46:13;97562.91;;;30.07;39.23
18858;BME280;9558;50.178;8.370;2022-08-14T10:48:41;97563.38;;;30.09;39.01
18858;BME280;9558;50.178;8.370;2022-08-14T10:51:08;97555.69;;;30.08;39.21
18858;BME280;9558;50.178;8.370;2022-08-14T10:53:35;97569.34;;;30.06;39.55
18858;BME280;9558;50.178;8.370;2022-08-14T10:56:10;97566.50;;;30.11;39.59
18858;BME280;9558;50.178;8.370;2022-08-14T10:58:38;97567.25;;;30.21;39.56
18858;BME280;9558;50.178;8.370;2022-08-14T11:01:05;97565.06;;;30.23;38.84
18858;BME280;9558;50.178;8.370;2022-08-14T11:03:40;97560.66;;;30.27;38.76
18858;BME280;9558;50.178;8.370;2022-08-14T11:06:16;97566.94;;;30.31;37.49
18858;BME280;9558;50.178;8.370;2022-08-14T11:08:46;97563.66;;;30.25;37.76
18858;BME280;9558;50.178;8.370;2022-08-14T11:11:14;97558.91;;;30.31;37.75
18858;BME280;9558;50.178;8.370;2022-08-14T11:13:42;97545.56;;;30.31;37.49
18858;BME280;9558;50.178;8.370;2022-08-14T11:16:11;97546.47;;;30.35;36.94
18858;BME280;9558;50.178;8.370;2022-08-14T11:18:43;97543.19;;;30.38;37.51
18858;BME280;9558;50.178;8.370;2022-08-14T11:21:13;97531.38;;;30.39;37.40
18858;BME280;9558;50.178;8.370;2022-08-14T11:23:40;97524.94;;;30.40;37.44
18858;BME280;9558;50.178;8.370;2022-08-14T11:26:07;97529.66;;;30.43;36.49
18858;BME280;9558;50.178;8.370;2022-08-14T11:28:37;97523.84;;;30.50;36.75
18858;BME280;9558;50.178;8.370;2022-08-14T11:31:07;97520.97;;;30.55;36.13
18858;BME280;9558;50.178;8.370;2022-08-14T11:33:35;97515.50;;;30.52;36.70
18858;BME280;9558;50.178;8.370;2022-08-14T11:36:06;97511.69;;;30.61;36.79
18858;BME280;9558;50.178;8.370;2022-08-14T11:38:37;97499.09;;;30.62;36.66
18858;BME280;9558;50.178;8.370;2022-08-14T11:41:05;97504.06;;;30.72;37.04
18858;BME280;9558;50.178;8.370;2022-08-14T11:43:37;97491.28;;;30.78;36.57
18858;BME280;9558;50.178;8.370;2022-08-14T11:46:05;97490.13;;;30.88;36.73
18858;BME280;9558;50.178;8.370;2022-08-14T11:48:31;97481.66;;;30.85;36.09
18858;BME280;9558;50.178;8.370;2022-08-14T11:50:58;97474.94;;;30.79;36.35
18858;BME280;9558;50.178;8.370;2022-08-14T11:53:27;97473.97;;;30.84;36.43
18858;BME280;9558;50.178;8.370;2022-08-14T11:55:56;97480.34;;;30.92;36.66
18858;BME280;9558;50.178;8.370;2022-08-14T11:58:25;97477.50;;;30.97;36.05
18858;BME280;9558;50.178;8.370;2022-08-14T12:00:54;97480.16;;;30.97;35.87
18858;BME280;9558;50.178;8.370;2022-08-14T12:03:34;97472.78;;;30.94;35.83
18858;BME280;9558;50.178;8.370;2022-08-14T12:06:06;97467.25;;;30.99;36.05
18858;BME280;9558;50.178;8.370;2022-08-14T12:08:35;97460.50;;;31.01;35.93
18858;BME280;9558;50.178;8.370;2022-08-14T12:11:03;97466.78;;;31.06;34.68
18858;BME280;9558;50.178;8.370;2022-08-14T12:13:30;97468.53;;;31.01;35.26
18858;BME280;9558;50.178;8.370;2022-08-14T12:16:00;97455.81;;;30.98;34.41
18858;BME280;9558;50.178;8.370;2022-08-14T12:18:31;97455.00;;;30.98;34.45
18858;BME280;9558;50.178;8.370;2022-08-14T12:21:10;97457.66;;;30.98;34.44
18858;BME280;9558;50.178;8.370;2022-08-14T12:23:39;97453.75;;;31.04;35.27
18858;BME280;9558;50.178;8.370;2022-08-14T12:26:07;97452.66;;;31.17;34.16
18858;BME280;9558;50.178;8.370;2022-08-14T12:28:35;97437.22;;;31.23;34.41
18858;BME280;9558;50.178;8.370;2022-08-14T12:31:11;97440.59;;;31.32;34.36
18858;BME280;9558;50.178;8.370;2022-08-14T12:33:42;97437.69;;;31.38;34.17
18858;BME280;9558;50.178;8.370;2022-08-14T12:36:18;97439.25;;;31.39;34.17
18858;BME280;9558;50.178;8.370;2022-08-14T12:38:48;97431.81;;;31.44;33.70
18858;BME280;9558;50.178;8.370;2022-08-14T12:41:20;97432.06;;;31.51;33.35
18858;BME280;9558;50.178;8.370;2022-08-14T12:43:49;97435.97;;;31.54;34.06
18858;BME280;9558;50.178;8.370;2022-08-14T12:46:25;97425.69;;;31.56;34.14
18858;BME280;9558;50.178;8.370;2022-08-14T12:48:52;97426.03;;;31.54;33.50
18858;BME280;9558;50.178;8.370;2022-08-14T12:51:21;97418.22;;;31.49;33.22
18858;BME280;9558;50.178;8.370;2022-08-14T12:53:52;97418.88;;;31.46;32.61
18858;BME280;9558;50.178;8.370;2022-08-14T12:56:20;97419.75;;;31.38;32.48
18858;BME280;9558;50.178;8.370;2022-08-14T12:58:51;97409.28;;;31.33;32.86
18858;BME280;9558;50.178;8.370;2022-08-14T13:01:20;97410.63;;;31.27;30.86
18858;BME280;9558;50.178;8.370;2022-08-14T13:03:48;97406.88;;;31.07;31.03
18858;BME280;9558;50.178;8.370;2022-08-14T13:06:15;97403.97;;;30.91;31.75
18858;BME280;9558;50.178;8.370;2022-08-14T13:08:42;97391.50;;;30.82;31.08
18858;BME280;9558;50.178;8.370;2022-08-14T13:11:12;97388.09;;;30.73;32.43
18858;BME280;9558;50.178;8.370;2022-08-14T13:13:43;97376.06;;;30.67;32.96
18858;BME280;9558;50.178;8.370;2022-08-14T13:16:10;97370.66;;;30.76;32.31
18858;BME280;9558;50.178;8.370;2022-08-14T13:18:40;97367.91;;;30.84;31.01
18858;BME280;9558;50.178;8.370;2022-08-14T13:21:10;97379.28;;;30.94;31.28